sensor_id;sensor_type;location;lat;lon;timestamp;temperature;humidity
75321;DHT22;63920;52.130;5.584;2022-10-26T00:01:27;11.90;92.40
75321;DHT22;63920;52.130;5.584;2022-10-26T00:03:55;11.80;92.40
75321;DHT22;63920;52.130;5.584;2022-10-26T00:06:22;11.90;92.40
75321;DHT22;63920;52.130;5.584;2022-10-26T00:08:49;11.70;92.40
75321;DHT22;63920;52.130;5.584;2022-10-26T00:11:16;12.70;92.70
75321;DHT22;63920;52.130;5.584;2022-10-26T00:13:43;11.70;92.50
75321;DHT22;63920;52.130;5.584;2022-10-26T00:16:13;11.70;92.60
75321;DHT22;63920;52.130;5.584;2022-10-26T00:18:39;11.70;92.60
75321;DHT22;63920;52.130;5.584;2022-10-26T00:21:05;11.70;92.60
75321;DHT22;63920;52.130;5.584;2022-10-26T00:23:31;11.70;92.60
75321;DHT22;63920;52.130;5.584;2022-10-26T00:25:57;11.70;92.60
75321;DHT22;63920;52.130;5.584;2022-10-26T00:28:23;11.70;92.70
75321;DHT22;63920;52.130;5.584;2022-10-26T00:30:49;11.70;92.70
75321;DHT22;63920;52.130;5.584;2022-10-26T00:33:15;11.70;92.60
75321;DHT22;63920;52.130;5.584;2022-10-26T00:35:40;11.70;92.80
75321;DHT22;63920;52.130;5.584;2022-10-26T00:38:06;11.70;92.70
75321;DHT22;63920;52.130;5.584;2022-10-26T00:40:31;11.70;92.70
75321;DHT22;63920;52.130;5.584;2022-10-26T00:42:57;11.70;92.70
75321;DHT22;63920;52.130;5.584;2022-10-26T00:45:25;11.70;92.70
75321;DHT22;63920;52.130;5.584;2022-10-26T00:48:06;11.70;92.70
75321;DHT22;63920;52.130;5.584;2022-10-26T00:50:39;11.60;92.70
75321;DHT22;63920;52.130;5.584;2022-10-26T00:53:07;11.60;92.80
75321;DHT22;63920;52.130;5.584;2022-10-26T00:55:37;11.60;92.70
75321;DHT22;63920;52.130;5.584;2022-10-26T00:58:05;11.50;92.70
75321;DHT22;63920;52.130;5.584;2022-10-26T01:00:32;11.60;92.70
75321;DHT22;63920;52.130;5.584;2022-10-26T01:03:00;11.60;92.80
75321;DHT22;63920;52.130;5.584;2022-10-26T01:05:29;11.60;92.70
75321;DHT22;63920;52.130;5.584;2022-10-26T01:07:55;11.60;92.80
75321;DHT22;63920;52.130;5.584;2022-10-26T01:10:21;11.60;92.80
75321;DHT22;63920;52.130;5.584;2022-10-26T01:12:47;11.70;92.90
75321;DHT22;63920;52.130;5.584;2022-10-26T01:15:13;11.60;92.80
75321;DHT22;63920;52.130;5.584;2022-10-26T01:27:59;11.60;93.10
75321;DHT22;63920;52.130;5.584;2022-10-26T01:30:37;11.70;93.20
75321;DHT22;63920;52.130;5.584;2022-10-26T01:33:14;11.70;93.10
75321;DHT22;63920;52.130;5.584;2022-10-26T01:41:16;11.80;93.00
75321;DHT22;63920;52.130;5.584;2022-10-26T01:43:50;11.80;93.10
75321;DHT22;63920;52.130;5.584;2022-10-26T01:46:20;11.80;93.00
75321;DHT22;63920;52.130;5.584;2022-10-26T01:48:49;11.60;93.00
75321;DHT22;63920;52.130;5.584;2022-10-26T01:51:17;11.70;93.10
75321;DHT22;63920;52.130;5.584;2022-10-26T01:53:46;11.80;93.00
75321;DHT22;63920;52.130;5.584;2022-10-26T01:56:24;11.70;93.30
75321;DHT22;63920;52.130;5.584;2022-10-26T02:06:40;11.80;93.30
75321;DHT22;63920;52.130;5.584;2022-10-26T02:12:04;11.80;93.10
75321;DHT22;63920;52.130;5.584;2022-10-26T02:14:42;11.80;93.10
75321;DHT22;63920;52.130;5.584;2022-10-26T02:17:15;11.70;93.10
75321;DHT22;63920;52.130;5.584;2022-10-26T02:19:50;11.80;93.30
75321;DHT22;63920;52.130;5.584;2022-10-26T02:22:23;11.80;93.20
75321;DHT22;63920;52.130;5.584;2022-10-26T02:24:51;11.80;93.20
75321;DHT22;63920;52.130;5.584;2022-10-26T02:27:21;11.90;93.30
75321;DHT22;63920;52.130;5.584;2022-10-26T02:29:49;11.90;93.30
75321;DHT22;63920;52.130;5.584;2022-10-26T02:32:18;11.90;93.30
75321;DHT22;63920;52.130;5.584;2022-10-26T02:34:46;12.00;93.40
75321;DHT22;63920;52.130;5.584;2022-10-26T02:37:14;12.00;93.40
75321;DHT22;63920;52.130;5.584;2022-10-26T02:39:44;12.00;93.30
75321;DHT22;63920;52.130;5.584;2022-10-26T02:42:13;12.00;93.40
75321;DHT22;63920;52.130;5.584;2022-10-26T02:44:52;12.00;93.30
75321;DHT22;63920;52.130;5.584;2022-10-26T02:47:19;12.00;93.30
75321;DHT22;63920;52.130;5.584;2022-10-26T02:49:45;12.00;93.20
75321;DHT22;63920;52.130;5.584;2022-10-26T02:52:38;12.00;93.30
75321;DHT22;63920;52.130;5.584;2022-10-26T02:55:20;12.10;93.50
75321;DHT22;63920;52.130;5.584;2022-10-26T02:57:51;12.00;93.40
75321;DHT22;63920;52.130;5.584;2022-10-26T03:00:19;12.10;93.40
75321;DHT22;63920;52.130;5.584;2022-10-26T03:02:57;12.10;93.50
75321;DHT22;63920;52.130;5.584;2022-10-26T03:05:28;12.10;93.40
75321;DHT22;63920;52.130;5.584;2022-10-26T03:07:54;12.10;93.30
75321;DHT22;63920;52.130;5.584;2022-10-26T03:10:20;12.10;93.40
75321;DHT22;63920;52.130;5.584;2022-10-26T03:12:46;12.20;93.40
75321;DHT22;63920;52.130;5.584;2022-10-26T03:15:12;12.20;93.40
75321;DHT22;63920;52.130;5.584;2022-10-26T03:17:38;12.20;93.40
75321;DHT22;63920;52.130;5.584;2022-10-26T03:20:04;12.20;93.30
75321;DHT22;63920;52.130;5.584;2022-10-26T03:22:30;12.10;93.30
75321;DHT22;63920;52.130;5.584;2022-10-26T03:24:55;12.10;93.40
75321;DHT22;63920;52.130;5.584;2022-10-26T03:27:21;12.10;93.60
75321;DHT22;63920;52.130;5.584;2022-10-26T03:29:47;12.10;93.60
75321;DHT22;63920;52.130;5.584;2022-10-26T03:32:12;12.10;93.60
75321;DHT22;63920;52.130;5.584;2022-10-26T03:34:38;12.20;93.60
75321;DHT22;63920;52.130;5.584;2022-10-26T03:37:03;12.20;93.60
75321;DHT22;63920;52.130;5.584;2022-10-26T03:39:29;12.10;93.60
75321;DHT22;63920;52.130;5.584;2022-10-26T03:41:55;12.20;93.40
75321;DHT22;63920;52.130;5.584;2022-10-26T03:44:21;12.20;93.40
75321;DHT22;63920;52.130;5.584;2022-10-26T03:46:46;12.20;93.40
75321;DHT22;63920;52.130;5.584;2022-10-26T03:49:12;12.20;93.50
75321;DHT22;63920;52.130;5.584;2022-10-26T03:51:38;12.20;93.50
75321;DHT22;63920;52.130;5.584;2022-10-26T03:54:04;12.10;93.60
75321;DHT22;63920;52.130;5.584;2022-10-26T03:56:29;12.20;93.60
75321;DHT22;63920;52.130;5.584;2022-10-26T03:58:55;12.20;93.50
75321;DHT22;63920;52.130;5.584;2022-10-26T04:01:20;12.20;93.60
75321;DHT22;63920;52.130;5.584;2022-10-26T04:03:46;12.20;93.60
75321;DHT22;63920;52.130;5.584;2022-10-26T04:06:12;12.20;93.50
75321;DHT22;63920;52.130;5.584;2022-10-26T04:08:38;12.20;93.50
75321;DHT22;63920;52.130;5.584;2022-10-26T04:11:03;12.20;93.50
75321;DHT22;63920;52.130;5.584;2022-10-26T04:13:29;12.20;93.50
75321;DHT22;63920;52.130;5.584;2022-10-26T04:15:54;12.20;93.60
75321;DHT22;63920;52.130;5.584;2022-10-26T04:18:20;12.20;93.50
75321;DHT22;63920;52.130;5.584;2022-10-26T04:20:46;12.20;93.60
75321;DHT22;63920;52.130;5.584;2022-10-26T04:23:15;12.20;93.70
75321;DHT22;63920;52.130;5.584;2022-10-26T04:25:42;12.20;93.50
75321;DHT22;63920;52.130;5.584;2022-10-26T04:28:10;12.20;93.40
75321;DHT22;63920;52.130;5.584;2022-10-26T04:30:36;12.20;93.40
75321;DHT22;63920;52.130;5.584;2022-10-26T04:33:03;12.30;93.40
75321;DHT22;63920;52.130;5.584;2022-10-26T04:35:29;12.20;93.30
75321;DHT22;63920;52.130;5.584;2022-10-26T04:37:59;12.20;93.30
75321;DHT22;63920;52.130;5.584;2022-10-26T04:40:25;12.30;93.20
75321;DHT22;63920;52.130;5.584;2022-10-26T04:42:51;12.20;93.00
75321;DHT22;63920;52.130;5.584;2022-10-26T04:45:16;12.20;93.30
75321;DHT22;63920;52.130;5.584;2022-10-26T04:47:42;12.20;93.40
75321;DHT22;63920;52.130;5.584;2022-10-26T04:50:09;12.20;93.30
75321;DHT22;63920;52.130;5.584;2022-10-26T04:52:35;12.20;93.40
75321;DHT22;63920;52.130;5.584;2022-10-26T04:55:01;12.20;93.40
75321;DHT22;63920;52.130;5.584;2022-10-26T04:57:31;12.20;93.40
75321;DHT22;63920;52.130;5.584;2022-10-26T04:59:57;12.10;93.40
75321;DHT22;63920;52.130;5.584;2022-10-26T05:02:22;12.20;93.40
75321;DHT22;63920;52.130;5.584;2022-10-26T05:04:48;12.20;93.20
75321;DHT22;63920;52.130;5.584;2022-10-26T05:07:13;12.20;93.40
75321;DHT22;63920;52.130;5.584;2022-10-26T05:09:39;12.20;93.40
75321;DHT22;63920;52.130;5.584;2022-10-26T05:12:04;12.20;93.40
75321;DHT22;63920;52.130;5.584;2022-10-26T05:14:30;12.30;93.30
75321;DHT22;63920;52.130;5.584;2022-10-26T05:16:56;12.30;93.40
75321;DHT22;63920;52.130;5.584;2022-10-26T05:19:22;12.30;93.30
75321;DHT22;63920;52.130;5.584;2022-10-26T05:21:47;12.30;93.60
75321;DHT22;63920;52.130;5.584;2022-10-26T05:24:13;12.30;93.40
75321;DHT22;63920;52.130;5.584;2022-10-26T05:26:38;12.30;93.40
75321;DHT22;63920;52.130;5.584;2022-10-26T05:29:04;12.30;93.40
75321;DHT22;63920;52.130;5.584;2022-10-26T05:31:30;12.40;93.80
75321;DHT22;63920;52.130;5.584;2022-10-26T05:33:55;12.30;93.40
75321;DHT22;63920;52.130;5.584;2022-10-26T05:36:21;12.40;93.40
75321;DHT22;63920;52.130;5.584;2022-10-26T05:38:46;12.40;93.30
75321;DHT22;63920;52.130;5.584;2022-10-26T05:41:12;12.30;93.30
75321;DHT22;63920;52.130;5.584;2022-10-26T05:43:37;12.50;93.40
75321;DHT22;63920;52.130;5.584;2022-10-26T05:46:03;12.30;93.40
75321;DHT22;63920;52.130;5.584;2022-10-26T05:48:29;12.40;93.30
75321;DHT22;63920;52.130;5.584;2022-10-26T05:50:58;12.30;93.40
75321;DHT22;63920;52.130;5.584;2022-10-26T05:53:24;12.30;93.30
75321;DHT22;63920;52.130;5.584;2022-10-26T05:55:50;12.30;93.30
75321;DHT22;63920;52.130;5.584;2022-10-26T05:58:16;12.30;93.50
75321;DHT22;63920;52.130;5.584;2022-10-26T06:01:27;12.30;93.30
75321;DHT22;63920;52.130;5.584;2022-10-26T06:06:45;12.30;93.50
75321;DHT22;63920;52.130;5.584;2022-10-26T06:09:12;12.30;93.50
75321;DHT22;63920;52.130;5.584;2022-10-26T06:11:38;12.30;93.40
75321;DHT22;63920;52.130;5.584;2022-10-26T06:14:04;12.30;93.40
75321;DHT22;63920;52.130;5.584;2022-10-26T06:30:09;12.30;93.00
75321;DHT22;63920;52.130;5.584;2022-10-26T06:32:37;12.30;93.10
75321;DHT22;63920;52.130;5.584;2022-10-26T06:35:36;12.30;93.00
75321;DHT22;63920;52.130;5.584;2022-10-26T06:38:14;12.30;93.30
75321;DHT22;63920;52.130;5.584;2022-10-26T06:40:42;12.30;93.20
75321;DHT22;63920;52.130;5.584;2022-10-26T06:43:15;12.30;93.10
75321;DHT22;63920;52.130;5.584;2022-10-26T06:45:44;12.30;93.10
75321;DHT22;63920;52.130;5.584;2022-10-26T06:48:19;12.30;93.30
75321;DHT22;63920;52.130;5.584;2022-10-26T06:50:54;12.40;93.40
75321;DHT22;63920;52.130;5.584;2022-10-26T06:55:52;12.40;93.30
75321;DHT22;63920;52.130;5.584;2022-10-26T06:58:19;12.40;93.60
75321;DHT22;63920;52.130;5.584;2022-10-26T07:00:48;12.40;93.30
75321;DHT22;63920;52.130;5.584;2022-10-26T07:03:15;12.50;93.30
75321;DHT22;63920;52.130;5.584;2022-10-26T07:05:41;12.50;93.20
75321;DHT22;63920;52.130;5.584;2022-10-26T07:08:07;12.60;93.30
75321;DHT22;63920;52.130;5.584;2022-10-26T07:10:34;12.60;93.10
75321;DHT22;63920;52.130;5.584;2022-10-26T07:13:06;12.70;93.10
75321;DHT22;63920;52.130;5.584;2022-10-26T07:15:33;12.60;93.10
75321;DHT22;63920;52.130;5.584;2022-10-26T07:17:59;12.70;93.10
75321;DHT22;63920;52.130;5.584;2022-10-26T07:20:24;12.70;93.10
75321;DHT22;63920;52.130;5.584;2022-10-26T07:22:52;12.70;92.90
75321;DHT22;63920;52.130;5.584;2022-10-26T07:25:18;12.80;93.00
75321;DHT22;63920;52.130;5.584;2022-10-26T07:27:44;12.80;92.90
75321;DHT22;63920;52.130;5.584;2022-10-26T07:30:10;12.90;92.80
75321;DHT22;63920;52.130;5.584;2022-10-26T07:32:35;12.90;92.90
75321;DHT22;63920;52.130;5.584;2022-10-26T07:35:01;12.90;92.90
75321;DHT22;63920;52.130;5.584;2022-10-26T07:37:27;13.00;92.90
75321;DHT22;63920;52.130;5.584;2022-10-26T07:39:52;13.10;92.80
75321;DHT22;63920;52.130;5.584;2022-10-26T07:42:18;13.20;92.90
75321;DHT22;63920;52.130;5.584;2022-10-26T07:44:43;13.20;92.80
75321;DHT22;63920;52.130;5.584;2022-10-26T07:47:09;13.30;92.60
75321;DHT22;63920;52.130;5.584;2022-10-26T07:49:35;13.40;92.40
75321;DHT22;63920;52.130;5.584;2022-10-26T07:52:01;13.40;92.10
75321;DHT22;63920;52.130;5.584;2022-10-26T07:54:26;13.40;92.30
75321;DHT22;63920;52.130;5.584;2022-10-26T07:56:52;13.40;92.10
75321;DHT22;63920;52.130;5.584;2022-10-26T07:59:17;13.40;92.00
75321;DHT22;63920;52.130;5.584;2022-10-26T08:01:43;13.50;92.30
75321;DHT22;63920;52.130;5.584;2022-10-26T08:04:09;13.50;92.40
75321;DHT22;63920;52.130;5.584;2022-10-26T08:06:35;13.50;92.40
75321;DHT22;63920;52.130;5.584;2022-10-26T08:09:00;13.60;92.40
75321;DHT22;63920;52.130;5.584;2022-10-26T08:11:26;13.70;92.30
75321;DHT22;63920;52.130;5.584;2022-10-26T08:13:52;13.70;92.20
75321;DHT22;63920;52.130;5.584;2022-10-26T08:16:18;13.90;92.20
75321;DHT22;63920;52.130;5.584;2022-10-26T08:18:47;14.30;91.80
75321;DHT22;63920;52.130;5.584;2022-10-26T08:21:13;14.20;91.60
75321;DHT22;63920;52.130;5.584;2022-10-26T08:23:39;14.30;91.30
75321;DHT22;63920;52.130;5.584;2022-10-26T08:26:05;14.50;91.30
75321;DHT22;63920;52.130;5.584;2022-10-26T08:28:31;14.60;91.20
75321;DHT22;63920;52.130;5.584;2022-10-26T08:30:57;14.60;91.00
75321;DHT22;63920;52.130;5.584;2022-10-26T08:33:23;14.60;90.70
75321;DHT22;63920;52.130;5.584;2022-10-26T08:35:53;14.70;90.50
75321;DHT22;63920;52.130;5.584;2022-10-26T08:38:19;14.80;90.40
75321;DHT22;63920;52.130;5.584;2022-10-26T08:40:45;14.90;90.40
75321;DHT22;63920;52.130;5.584;2022-10-26T08:43:29;14.90;90.40
75321;DHT22;63920;52.130;5.584;2022-10-26T08:46:10;15.10;90.10
75321;DHT22;63920;52.130;5.584;2022-10-26T08:49:17;15.10;90.30
75321;DHT22;63920;52.130;5.584;2022-10-26T08:51:45;15.10;90.30
75321;DHT22;63920;52.130;5.584;2022-10-26T08:54:36;15.20;90.50
75321;DHT22;63920;52.130;5.584;2022-10-26T08:57:12;15.30;90.20
75321;DHT22;63920;52.130;5.584;2022-10-26T09:00:00;15.40;90.00
75321;DHT22;63920;52.130;5.584;2022-10-26T09:02:27;15.40;89.00
75321;DHT22;63920;52.130;5.584;2022-10-26T09:04:54;15.40;89.70
75321;DHT22;63920;52.130;5.584;2022-10-26T09:10:35;15.30;90.00
75321;DHT22;63920;52.130;5.584;2022-10-26T09:13:17;15.40;90.30
75321;DHT22;63920;52.130;5.584;2022-10-26T09:16:04;15.40;90.30
75321;DHT22;63920;52.130;5.584;2022-10-26T09:18:45;15.40;90.40
75321;DHT22;63920;52.130;5.584;2022-10-26T09:21:42;15.40;90.50
75321;DHT22;63920;52.130;5.584;2022-10-26T09:24:24;15.40;90.50
75321;DHT22;63920;52.130;5.584;2022-10-26T09:26:57;15.50;90.40
75321;DHT22;63920;52.130;5.584;2022-10-26T09:29:28;15.40;91.10
75321;DHT22;63920;52.130;5.584;2022-10-26T09:31:56;15.60;90.90
75321;DHT22;63920;52.130;5.584;2022-10-26T09:34:39;15.60;90.80
75321;DHT22;63920;52.130;5.584;2022-10-26T09:37:28;15.70;90.40
75321;DHT22;63920;52.130;5.584;2022-10-26T09:45:31;16.30;89.10
75321;DHT22;63920;52.130;5.584;2022-10-26T09:48:06;16.40;88.90
75321;DHT22;63920;52.130;5.584;2022-10-26T09:50:37;16.50;88.50
75321;DHT22;63920;52.130;5.584;2022-10-26T09:53:03;16.60;88.60
75321;DHT22;63920;52.130;5.584;2022-10-26T09:55:30;16.60;88.50
75321;DHT22;63920;52.130;5.584;2022-10-26T09:58:00;16.50;87.60
75321;DHT22;63920;52.130;5.584;2022-10-26T10:00:26;16.60;88.70
75321;DHT22;63920;52.130;5.584;2022-10-26T10:02:54;16.60;87.50
75321;DHT22;63920;52.130;5.584;2022-10-26T10:05:31;16.60;87.30
75321;DHT22;63920;52.130;5.584;2022-10-26T10:08:20;16.60;87.40
75321;DHT22;63920;52.130;5.584;2022-10-26T10:11:01;16.60;88.00
75321;DHT22;63920;52.130;5.584;2022-10-26T10:13:30;16.60;88.00
75321;DHT22;63920;52.130;5.584;2022-10-26T10:16:20;16.70;87.40
75321;DHT22;63920;52.130;5.584;2022-10-26T10:18:53;16.80;88.00
75321;DHT22;63920;52.130;5.584;2022-10-26T10:21:19;16.90;87.60
75321;DHT22;63920;52.130;5.584;2022-10-26T10:23:48;16.80;87.80
75321;DHT22;63920;52.130;5.584;2022-10-26T10:26:14;16.90;87.80
75321;DHT22;63920;52.130;5.584;2022-10-26T10:28:40;16.90;87.80
75321;DHT22;63920;52.130;5.584;2022-10-26T10:31:21;17.00;87.20
75321;DHT22;63920;52.130;5.584;2022-10-26T10:33:47;17.10;87.20
75321;DHT22;63920;52.130;5.584;2022-10-26T10:36:19;17.10;87.30
75321;DHT22;63920;52.130;5.584;2022-10-26T10:38:46;17.20;87.70
75321;DHT22;63920;52.130;5.584;2022-10-26T10:41:24;17.20;88.30
75321;DHT22;63920;52.130;5.584;2022-10-26T10:44:37;17.30;88.00
75321;DHT22;63920;52.130;5.584;2022-10-26T10:46:38;17.40;87.30
75321;DHT22;63920;52.130;5.584;2022-10-26T10:49:06;17.40;87.50
75321;DHT22;63920;52.130;5.584;2022-10-26T10:51:42;17.40;87.90
75321;DHT22;63920;52.130;5.584;2022-10-26T10:54:24;17.50;87.90
75321;DHT22;63920;52.130;5.584;2022-10-26T10:56:54;17.60;87.20
75321;DHT22;63920;52.130;5.584;2022-10-26T11:02:41;17.70;87.50
75321;DHT22;63920;52.130;5.584;2022-10-26T11:08:02;17.70;86.80
75321;DHT22;63920;52.130;5.584;2022-10-26T11:10:35;17.70;87.00
75321;DHT22;63920;52.130;5.584;2022-10-26T11:13:13;17.80;86.90
75321;DHT22;63920;52.130;5.584;2022-10-26T11:15:41;17.80;87.30
75321;DHT22;63920;52.130;5.584;2022-10-26T11:18:16;17.90;86.60
75321;DHT22;63920;52.130;5.584;2022-10-26T11:20:50;17.70;87.10
75321;DHT22;63920;52.130;5.584;2022-10-26T11:31:02;17.90;87.10
75321;DHT22;63920;52.130;5.584;2022-10-26T11:33:52;17.90;87.70
75321;DHT22;63920;52.130;5.584;2022-10-26T11:36:23;17.70;87.60
75321;DHT22;63920;52.130;5.584;2022-10-26T11:38:53;17.70;87.90
75321;DHT22;63920;52.130;5.584;2022-10-26T11:41:32;17.70;88.10
75321;DHT22;63920;52.130;5.584;2022-10-26T11:44:08;17.70;87.80
75321;DHT22;63920;52.130;5.584;2022-10-26T11:46:37;17.70;87.40
75321;DHT22;63920;52.130;5.584;2022-10-26T11:52:32;17.60;88.20
75321;DHT22;63920;52.130;5.584;2022-10-26T11:54:57;17.50;88.90
75321;DHT22;63920;52.130;5.584;2022-10-26T11:57:25;17.40;88.80
75321;DHT22;63920;52.130;5.584;2022-10-26T11:59:56;17.40;88.90
75321;DHT22;63920;52.130;5.584;2022-10-26T12:02:24;17.40;88.90
75321;DHT22;63920;52.130;5.584;2022-10-26T12:05:05;17.40;89.40
75321;DHT22;63920;52.130;5.584;2022-10-26T12:07:35;17.50;88.40
75321;DHT22;63920;52.130;5.584;2022-10-26T12:10:05;17.60;88.00
75321;DHT22;63920;52.130;5.584;2022-10-26T12:12:40;17.50;88.60
75321;DHT22;63920;52.130;5.584;2022-10-26T12:18:24;17.60;89.00
75321;DHT22;63920;52.130;5.584;2022-10-26T12:20:57;17.70;88.00
75321;DHT22;63920;52.130;5.584;2022-10-26T12:23:28;17.70;87.90
75321;DHT22;63920;52.130;5.584;2022-10-26T12:26:59;17.80;88.00
75321;DHT22;63920;52.130;5.584;2022-10-26T12:34:04;17.90;87.00
75321;DHT22;63920;52.130;5.584;2022-10-26T12:36:49;17.80;86.60
75321;DHT22;63920;52.130;5.584;2022-10-26T12:39:32;17.90;86.30
75321;DHT22;63920;52.130;5.584;2022-10-26T12:44:38;17.80;86.60
75321;DHT22;63920;52.130;5.584;2022-10-26T12:47:06;17.80;87.10
75321;DHT22;63920;52.130;5.584;2022-10-26T12:49:59;17.80;86.90
75321;DHT22;63920;52.130;5.584;2022-10-26T12:52:28;17.90;86.00
75321;DHT22;63920;52.130;5.584;2022-10-26T13:06:49;18.30;84.90
75321;DHT22;63920;52.130;5.584;2022-10-26T13:09:21;18.30;84.60
75321;DHT22;63920;52.130;5.584;2022-10-26T13:11:50;18.40;84.40
75321;DHT22;63920;52.130;5.584;2022-10-26T13:14:56;18.40;83.70
75321;DHT22;63920;52.130;5.584;2022-10-26T13:17:25;18.40;83.70
75321;DHT22;63920;52.130;5.584;2022-10-26T13:19:57;18.40;83.80
75321;DHT22;63920;52.130;5.584;2022-10-26T13:22:24;18.40;84.80
75321;DHT22;63920;52.130;5.584;2022-10-26T13:24:52;18.40;84.00
75321;DHT22;63920;52.130;5.584;2022-10-26T13:32:41;18.40;83.40
75321;DHT22;63920;52.130;5.584;2022-10-26T13:35:13;18.50;83.90
75321;DHT22;63920;52.130;5.584;2022-10-26T13:37:43;18.40;83.40
75321;DHT22;63920;52.130;5.584;2022-10-26T13:40:15;18.50;84.10
75321;DHT22;63920;52.130;5.584;2022-10-26T13:42:48;18.40;84.50
75321;DHT22;63920;52.130;5.584;2022-10-26T13:45:17;18.50;84.10
75321;DHT22;63920;52.130;5.584;2022-10-26T13:48:03;18.50;83.80
75321;DHT22;63920;52.130;5.584;2022-10-26T13:50:40;18.60;84.10
75321;DHT22;63920;52.130;5.584;2022-10-26T13:53:40;18.60;84.70
75321;DHT22;63920;52.130;5.584;2022-10-26T13:56:29;18.60;84.50
75321;DHT22;63920;52.130;5.584;2022-10-26T13:59:03;18.50;84.60
75321;DHT22;63920;52.130;5.584;2022-10-26T14:01:31;18.60;85.00
75321;DHT22;63920;52.130;5.584;2022-10-26T14:03:56;18.60;84.50
75321;DHT22;63920;52.130;5.584;2022-10-26T14:06:33;18.50;84.10
75321;DHT22;63920;52.130;5.584;2022-10-26T14:09:02;18.50;84.40
75321;DHT22;63920;52.130;5.584;2022-10-26T14:11:43;18.50;85.20
75321;DHT22;63920;52.130;5.584;2022-10-26T14:14:17;18.40;84.80
75321;DHT22;63920;52.130;5.584;2022-10-26T14:16:44;18.50;85.10
75321;DHT22;63920;52.130;5.584;2022-10-26T14:21:55;18.50;85.70
75321;DHT22;63920;52.130;5.584;2022-10-26T14:24:23;18.50;85.80
75321;DHT22;63920;52.130;5.584;2022-10-26T14:26:51;18.50;86.00
75321;DHT22;63920;52.130;5.584;2022-10-26T14:29:19;18.50;86.20
75321;DHT22;63920;52.130;5.584;2022-10-26T14:31:45;18.50;85.70
75321;DHT22;63920;52.130;5.584;2022-10-26T14:34:12;18.60;85.10
75321;DHT22;63920;52.130;5.584;2022-10-26T14:36:43;18.60;85.20
75321;DHT22;63920;52.130;5.584;2022-10-26T14:39:38;18.50;85.50
75321;DHT22;63920;52.130;5.584;2022-10-26T14:44:46;18.50;86.10
75321;DHT22;63920;52.130;5.584;2022-10-26T14:47:19;18.50;86.50
75321;DHT22;63920;52.130;5.584;2022-10-26T14:49:47;18.50;86.10
75321;DHT22;63920;52.130;5.584;2022-10-26T14:52:19;18.50;86.50
75321;DHT22;63920;52.130;5.584;2022-10-26T14:54:56;18.60;86.60
75321;DHT22;63920;52.130;5.584;2022-10-26T14:57:33;18.50;86.60
75321;DHT22;63920;52.130;5.584;2022-10-26T15:00:02;18.60;86.50
75321;DHT22;63920;52.130;5.584;2022-10-26T15:02:28;18.50;86.90
75321;DHT22;63920;52.130;5.584;2022-10-26T15:04:59;18.50;86.70
75321;DHT22;63920;52.130;5.584;2022-10-26T15:07:34;18.50;86.70
75321;DHT22;63920;52.130;5.584;2022-10-26T15:10:00;18.60;86.50
75321;DHT22;63920;52.130;5.584;2022-10-26T15:12:35;18.50;86.50
75321;DHT22;63920;52.130;5.584;2022-10-26T15:17:41;18.60;85.90
75321;DHT22;63920;52.130;5.584;2022-10-26T15:20:15;18.50;86.20
75321;DHT22;63920;52.130;5.584;2022-10-26T15:22:42;18.50;86.60
75321;DHT22;63920;52.130;5.584;2022-10-26T15:25:17;18.40;86.50
75321;DHT22;63920;52.130;5.584;2022-10-26T15:27:46;18.40;86.60
75321;DHT22;63920;52.130;5.584;2022-10-26T15:32:43;18.40;86.50
75321;DHT22;63920;52.130;5.584;2022-10-26T15:35:21;18.40;86.60
75321;DHT22;63920;52.130;5.584;2022-10-26T15:37:48;18.40;86.50
75321;DHT22;63920;52.130;5.584;2022-10-26T15:40:14;18.40;86.30
75321;DHT22;63920;52.130;5.584;2022-10-26T15:42:41;18.30;86.40
75321;DHT22;63920;52.130;5.584;2022-10-26T15:45:17;18.40;87.30
75321;DHT22;63920;52.130;5.584;2022-10-26T15:47:45;18.30;86.80
75321;DHT22;63920;52.130;5.584;2022-10-26T15:50:16;18.30;86.40
75321;DHT22;63920;52.130;5.584;2022-10-26T15:52:42;18.20;86.40
75321;DHT22;63920;52.130;5.584;2022-10-26T15:55:09;18.20;86.60
75321;DHT22;63920;52.130;5.584;2022-10-26T15:57:35;18.20;86.40
75321;DHT22;63920;52.130;5.584;2022-10-26T16:00:01;18.10;86.30
75321;DHT22;63920;52.130;5.584;2022-10-26T16:02:27;18.10;86.70
75321;DHT22;63920;52.130;5.584;2022-10-26T16:04:52;18.00;87.20
75321;DHT22;63920;52.130;5.584;2022-10-26T16:07:19;18.00;87.40
75321;DHT22;63920;52.130;5.584;2022-10-26T16:09:45;17.90;87.60
75321;DHT22;63920;52.130;5.584;2022-10-26T16:12:11;17.90;87.70
75321;DHT22;63920;52.130;5.584;2022-10-26T16:14:37;17.90;88.00
75321;DHT22;63920;52.130;5.584;2022-10-26T16:17:04;17.70;87.80
75321;DHT22;63920;52.130;5.584;2022-10-26T16:19:29;17.70;87.90
75321;DHT22;63920;52.130;5.584;2022-10-26T16:21:55;17.70;87.90
75321;DHT22;63920;52.130;5.584;2022-10-26T16:24:21;17.70;88.20
75321;DHT22;63920;52.130;5.584;2022-10-26T16:26:46;17.70;88.00
75321;DHT22;63920;52.130;5.584;2022-10-26T16:29:12;17.50;88.30
75321;DHT22;63920;52.130;5.584;2022-10-26T16:31:38;17.50;88.30
75321;DHT22;63920;52.130;5.584;2022-10-26T16:34:03;17.50;88.80
75321;DHT22;63920;52.130;5.584;2022-10-26T16:36:29;17.50;88.80
75321;DHT22;63920;52.130;5.584;2022-10-26T16:38:57;17.50;88.90
75321;DHT22;63920;52.130;5.584;2022-10-26T16:41:22;17.50;89.00
75321;DHT22;63920;52.130;5.584;2022-10-26T16:43:48;17.50;88.90
75321;DHT22;63920;52.130;5.584;2022-10-26T16:46:16;17.50;88.80
75321;DHT22;63920;52.130;5.584;2022-10-26T16:48:43;17.50;88.80
75321;DHT22;63920;52.130;5.584;2022-10-26T16:51:12;17.50;88.80
75321;DHT22;63920;52.130;5.584;2022-10-26T16:53:38;17.40;88.60
75321;DHT22;63920;52.130;5.584;2022-10-26T16:56:12;17.40;88.50
75321;DHT22;63920;52.130;5.584;2022-10-26T16:58:38;17.40;88.60
75321;DHT22;63920;52.130;5.584;2022-10-26T17:01:05;17.40;88.60
75321;DHT22;63920;52.130;5.584;2022-10-26T17:03:32;17.30;88.70
75321;DHT22;63920;52.130;5.584;2022-10-26T17:06:02;17.30;88.80
75321;DHT22;63920;52.130;5.584;2022-10-26T17:08:28;17.30;88.80
75321;DHT22;63920;52.130;5.584;2022-10-26T17:11:21;17.30;88.60
75321;DHT22;63920;52.130;5.584;2022-10-26T17:13:47;17.30;89.00
75321;DHT22;63920;52.130;5.584;2022-10-26T17:16:19;17.30;88.90
75321;DHT22;63920;52.130;5.584;2022-10-26T17:18:45;17.30;89.20
75321;DHT22;63920;52.130;5.584;2022-10-26T17:21:13;17.20;89.20
75321;DHT22;63920;52.130;5.584;2022-10-26T17:23:39;17.20;89.40
75321;DHT22;63920;52.130;5.584;2022-10-26T17:26:07;17.10;89.20
75321;DHT22;63920;52.130;5.584;2022-10-26T17:28:33;17.10;89.20
75321;DHT22;63920;52.130;5.584;2022-10-26T17:31:09;17.00;89.40
75321;DHT22;63920;52.130;5.584;2022-10-26T17:33:36;17.00;89.80
75321;DHT22;63920;52.130;5.584;2022-10-26T17:36:04;16.90;89.80
75321;DHT22;63920;52.130;5.584;2022-10-26T17:38:35;16.90;89.80